createdAt,value
2023-04-05T00:02:14.167Z,62.41
2023-04-05T00:07:17.422Z,63.55
2023-04-05T00:12:18.992Z,63.84
2023-04-05T00:17:20.889Z,64.60
2023-04-05T00:22:25.519Z,64.44
2023-04-05T00:27:27.158Z,65.85
2023-04-05T00:32:29.363Z,66.00
2023-04-05T00:37:30.892Z,64.99
2023-04-05T00:42:32.489Z,66.34
2023-04-05T00:47:34.539Z,66.07
2023-04-05T00:52:38.102Z,66.58
2023-04-05T00:57:40.144Z,67.21
2023-04-05T01:02:49.977Z,67.26
2023-04-05T01:08:04.720Z,67.76
2023-04-05T01:13:06.684Z,69.04
2023-04-05T01:18:10.564Z,68.86
2023-04-05T01:23:38.000Z,70.02
2023-04-05T01:29:04.887Z,69.68
2023-04-05T01:34:24.570Z,69.83
2023-04-05T01:39:27.458Z,70.31
2023-04-05T01:44:29.441Z,70.15
2023-04-05T01:49:31.269Z,70.90
2023-04-05T01:54:32.809Z,71.76
2023-04-05T01:59:34.367Z,71.61
2023-04-05T02:04:35.921Z,71.47
2023-04-05T02:09:37.465Z,72.22
2023-04-05T02:14:39.038Z,72.02
2023-04-05T02:19:46.430Z,71.68
2023-04-05T02:24:48.225Z,72.51
2023-04-05T02:29:49.739Z,72.56
2023-04-05T02:34:52.571Z,72.23
2023-04-05T02:39:54.569Z,73.59
2023-04-05T02:44:56.519Z,73.64
2023-04-05T02:49:58.305Z,74.07
2023-04-05T02:55:06.542Z,73.21
2023-04-05T03:00:11.023Z,74.25
2023-04-05T03:05:13.923Z,73.70
2023-04-05T03:10:26.355Z,75.03
2023-04-05T03:15:33.590Z,74.97
2023-04-05T03:20:41.406Z,75.74
2023-04-05T03:25:50.883Z,77.16
2023-04-05T03:30:54.058Z,77.98
2023-04-05T03:35:56.312Z,78.23
2023-04-05T03:40:58.711Z,78.58
2023-04-05T03:46:00.458Z,78.83
2023-04-05T03:51:04.173Z,80.32
2023-04-05T03:56:06.493Z,78.95
2023-04-05T04:01:19.445Z,80.72
2023-04-05T04:06:21.375Z,80.82
2023-04-05T04:11:23.096Z,80.09
2023-04-05T04:16:26.761Z,80.10
2023-04-05T04:21:45.784Z,80.69
2023-04-05T04:26:56.736Z,81.27
2023-04-05T04:32:17.298Z,82.90
2023-04-05T04:37:32.354Z,83.30
2023-04-05T04:42:58.742Z,82.96
2023-04-05T04:48:14.451Z,82.69
2023-04-05T04:53:32.526Z,83.08
2023-04-05T04:58:34.193Z,82.84
2023-04-05T05:03:40.274Z,83.28
2023-04-05T05:08:41.969Z,83.78
2023-04-05T05:13:43.556Z,84.33
2023-04-05T05:18:52.000Z,84.48
2023-04-05T05:23:54.184Z,85.27
2023-04-05T05:28:56.492Z,85.67
2023-04-05T05:34:02.928Z,85.94
2023-04-05T05:39:05.953Z,87.44
2023-04-05T05:44:07.474Z,87.82
2023-04-05T05:49:09.174Z,86.97
2023-04-05T05:54:11.065Z,86.89
2023-04-05T05:59:12.781Z,86.94
2023-04-05T06:04:14.483Z,86.17
2023-04-05T06:09:17.120Z,85.17
2023-04-05T06:14:18.953Z,85.22
2023-04-05T06:19:20.602Z,84.23
2023-04-05T06:24:22.287Z,83.37
2023-04-05T06:29:23.986Z,82.42
2023-04-05T06:34:25.588Z,80.73
2023-04-05T06:39:27.194Z,80.58
2023-04-05T06:44:29.009Z,79.25
2023-04-05T06:49:30.958Z,78.88
2023-04-05T06:54:39.528Z,78.33
2023-04-05T06:59:41.716Z,78.17
2023-04-05T07:04:43.821Z,77.14
2023-04-05T07:09:47.038Z,77.27
2023-04-05T07:14:48.549Z,75.28
2023-04-05T07:19:50.125Z,75.42
2023-04-05T07:24:52.436Z,74.18
2023-04-05T07:29:53.907Z,74.05
2023-04-05T07:34:56.750Z,72.48
2023-04-05T07:39:58.469Z,73.26
2023-04-05T07:44:59.923Z,70.81
2023-04-05T07:50:02.252Z,69.59
2023-04-05T07:55:03.907Z,70.17
2023-04-05T08:00:12.474Z,69.98
2023-04-05T08:05:17.405Z,69.27
2023-04-05T08:10:18.984Z,68.89
2023-04-05T08:15:21.037Z,67.90
2023-04-05T08:20:22.543Z,68.13
2023-04-05T08:25:24.079Z,66.41
2023-04-05T08:30:29.258Z,65.45
2023-04-05T08:35:31.540Z,66.18
2023-04-05T08:40:44.578Z,65.90
2023-04-05T08:45:51.585Z,64.72
2023-04-05T08:50:55.142Z,63.77
2023-04-05T08:56:00.361Z,64.80
2023-04-05T09:01:02.420Z,64.31
2023-04-05T09:06:07.630Z,64.10
2023-04-05T09:11:11.524Z,61.18
2023-04-05T09:16:16.029Z,61.05
2023-04-05T09:21:17.761Z,59.55
2023-04-05T09:26:21.413Z,57.36
2023-04-05T09:31:36.917Z,57.16
2023-04-05T09:36:47.200Z,57.43
2023-04-05T09:42:08.517Z,55.71
2023-04-05T09:47:22.766Z,54.34
2023-04-05T09:52:32.017Z,52.68
2023-04-05T09:57:35.483Z,53.02
2023-04-05T10:02:39.351Z,51.71
2023-04-05T10:07:44.691Z,52.05
2023-04-05T10:12:47.902Z,52.02
2023-04-05T10:17:55.481Z,51.13
2023-04-05T10:23:17.183Z,50.28
2023-04-05T10:28:35.684Z,51.63
2023-04-05T10:33:45.974Z,51.91
2023-04-05T10:39:26.162Z,51.23
2023-04-05T10:44:32.907Z,52.01
2023-04-05T10:49:40.236Z,51.04
2023-04-05T10:54:42.819Z,50.03
2023-04-05T10:59:46.282Z,48.62
2023-04-05T11:04:56.145Z,50.15
2023-04-05T11:10:02.478Z,48.67
2023-04-05T11:15:32.987Z,49.51
2023-04-05T11:20:47.866Z,49.95
2023-04-05T11:25:55.000Z,50.00
2023-04-05T11:30:58.441Z,49.32
2023-04-05T11:36:04.093Z,50.07
2023-04-05T11:41:21.162Z,49.42
2023-04-05T11:46:32.218Z,47.82
2023-04-05T11:51:33.958Z,48.13
2023-04-05T11:56:35.541Z,48.07
2023-04-05T12:01:39.545Z,49.09
2023-04-05T12:06:41.077Z,48.65
2023-04-05T12:11:42.569Z,48.75
2023-04-05T12:16:50.689Z,47.21
2023-04-05T12:21:52.321Z,46.93
2023-04-05T12:26:56.244Z,47.34
2023-04-05T12:32:01.265Z,47.97
2023-04-05T12:37:03.733Z,46.11
2023-04-05T12:42:05.440Z,45.62
2023-04-05T12:47:11.029Z,45.42
2023-04-05T12:52:20.910Z,46.77
2023-04-05T12:57:30.297Z,47.11
2023-04-05T13:02:31.819Z,45.48
2023-04-05T13:07:33.336Z,45.23
2023-04-05T13:12:34.857Z,46.20
2023-04-05T13:17:42.968Z,45.22
2023-04-05T13:22:45.650Z,45.10
2023-04-05T13:27:47.329Z,44.07
2023-04-05T13:32:48.851Z,44.44
2023-04-05T13:37:53.309Z,43.34
2023-04-05T13:42:54.801Z,43.73
2023-04-05T13:47:56.333Z,43.21
2023-04-05T13:52:59.355Z,42.79
2023-04-05T13:58:00.950Z,41.84
2023-04-05T14:03:02.602Z,42.78
2023-04-05T14:08:04.152Z,42.97
2023-04-05T14:13:12.965Z,40.02
2023-04-05T14:18:14.440Z,40.24
2023-04-05T14:23:15.942Z,38.80
2023-04-05T14:28:17.498Z,39.75
2023-04-05T14:33:19.045Z,40.82
2023-04-05T14:38:20.702Z,39.07
2023-04-05T14:43:23.539Z,38.86
2023-04-05T14:48:25.183Z,40.60
2023-04-05T14:53:26.938Z,40.81
2023-04-05T14:58:29.315Z,40.99
2023-04-05T15:03:31.483Z,40.54
2023-04-05T15:08:33.342Z,40.46
2023-04-05T15:13:35.007Z,39.36
2023-04-05T15:18:36.476Z,39.14
2023-04-05T15:23:40.502Z,39.95
2023-04-05T15:28:41.986Z,40.13
2023-04-05T15:33:43.490Z,38.78
2023-04-05T15:38:45.489Z,39.51
2023-04-05T15:43:47.853Z,39.18
2023-04-05T15:48:51.765Z,38.96
2023-04-05T15:53:54.176Z,38.19
2023-04-05T15:58:56.125Z,39.26
2023-04-05T16:03:57.718Z,38.91
2023-04-05T16:09:00.625Z,38.13
2023-04-05T16:14:03.345Z,37.98
2023-04-05T16:19:06.054Z,39.12
2023-04-05T16:24:07.716Z,36.80
2023-04-05T16:29:09.289Z,38.67
2023-04-05T16:34:10.968Z,39.65
2023-04-05T16:39:12.530Z,40.41
2023-04-05T16:44:14.008Z,38.28
2023-04-05T16:49:15.871Z,39.65
2023-04-05T16:54:17.361Z,39.58
2023-04-05T16:59:18.870Z,39.70
2023-04-05T17:04:20.372Z,40.19
2023-04-05T17:09:23.036Z,40.62
2023-04-05T17:14:24.728Z,40.51
2023-04-05T17:19:26.496Z,40.57
2023-04-05T17:24:36.836Z,39.93
2023-04-05T17:29:39.140Z,39.39
2023-04-05T17:34:40.612Z,41.06
2023-04-05T17:39:42.096Z,40.97
2023-04-05T17:44:46.104Z,41.96
2023-04-05T17:49:47.580Z,41.85
2023-04-05T17:54:49.196Z,41.90
2023-04-05T17:59:53.181Z,42.89
2023-04-05T18:04:54.678Z,42.32
2023-04-05T18:09:56.409Z,42.50
2023-04-05T18:14:57.917Z,42.85
2023-04-05T18:19:59.472Z,43.41
2023-04-05T18:25:00.996Z,44.16
2023-04-05T18:30:02.992Z,45.18
2023-04-05T18:35:04.799Z,45.76
2023-04-05T18:40:07.040Z,46.52
2023-04-05T18:45:09.003Z,47.07
2023-04-05T18:50:10.982Z,47.12
2023-04-05T18:55:13.975Z,48.27
2023-04-05T19:00:15.653Z,48.82
2023-04-05T19:05:17.192Z,49.23
2023-04-05T19:10:18.729Z,50.13
2023-04-05T19:15:20.454Z,50.58
2023-04-05T19:20:21.911Z,51.25
2023-04-05T19:25:23.397Z,51.99
2023-04-05T19:30:25.051Z,51.77
2023-04-05T19:35:26.619Z,52.53
2023-04-05T19:40:28.090Z,53.45
2023-04-05T19:45:31.034Z,53.68
2023-04-05T19:50:35.360Z,55.08
2023-04-05T19:55:38.390Z,55.25
2023-04-05T20:00:52.363Z,55.59
2023-04-05T20:06:07.433Z,56.43
2023-04-05T20:11:13.128Z,57.32
2023-04-05T20:16:15.609Z,56.63
2023-04-05T20:21:17.965Z,57.23
2023-04-05T20:26:28.800Z,57.45
2023-04-05T20:31:32.489Z,58.45
2023-04-05T20:36:36.712Z,58.51
2023-04-05T20:41:38.220Z,58.81
2023-04-05T20:46:39.750Z,58.59
2023-04-05T20:51:43.033Z,59.77
2023-04-05T20:56:45.766Z,60.31
2023-04-05T21:01:47.700Z,59.36
2023-04-05T21:06:49.334Z,59.68
2023-04-05T21:11:50.814Z,60.45
2023-04-05T21:16:52.281Z,59.75
2023-04-05T21:21:54.042Z,60.43
2023-04-05T21:26:56.432Z,60.21
2023-04-05T21:31:57.957Z,61.46
2023-04-05T21:37:01.820Z,61.40
2023-04-05T21:42:03.427Z,61.04
2023-04-05T21:47:05.137Z,62.28
2023-04-05T21:52:06.755Z,62.34
2023-04-05T21:57:08.264Z,62.19
2023-04-05T22:02:11.978Z,63.78
2023-04-05T22:07:13.522Z,63.84
2023-04-05T22:12:15.615Z,63.89
2023-04-05T22:17:18.401Z,64.13
2023-04-05T22:22:19.925Z,64.87
2023-04-05T22:27:21.465Z,64.97
2023-04-05T22:32:23.048Z,63.86
2023-04-05T22:37:24.585Z,64.11
2023-04-05T22:42:26.062Z,64.49
2023-04-05T22:47:27.616Z,65.43
2023-04-05T22:52:29.147Z,64.91
2023-04-05T22:57:31.189Z,65.64
2023-04-05T23:02:32.752Z,66.27
2023-04-05T23:07:34.321Z,67.14
2023-04-05T23:12:36.146Z,67.40
2023-04-05T23:17:37.743Z,69.37
2023-04-05T23:22:39.275Z,69.03
2023-04-05T23:27:40.803Z,69.50
2023-04-05T23:32:42.299Z,70.06
2023-04-05T23:37:45.561Z,70.62
2023-04-05T23:42:47.090Z,71.70
2023-04-05T23:47:48.705Z,71.16
2023-04-05T23:52:50.500Z,72.37
2023-04-05T23:57:53.292Z,72.39
